METAR Data
IDs: Format: Raw Decoded Include TAF

Data at: 0237 UTC 25 Jan 2020

METAR for:KEOK (Keokuk Muni, IA, US)
Text:KEOK 250235Z AUTO 30009KT 3SM BR OVC008 00/00 A2990 RMK AO2
Temperature: 0.0°C ( 32°F)
Dewpoint: 0.0°C ( 32°F) [RH = 100%]
Pressure (altimeter):29.90 inches Hg (1012.6 mb)
Winds:from the WNW (300 degrees) at 10 MPH (9 knots; 4.6 m/s)
Visibility: 3 sm ( 5 km)
Ceiling:800 feet AGL
Clouds: overcast cloud deck at 800 feet AGL
Weather:BR (mist)
QC Flag:automated observation with no human augmentation